LKKV

Karlovy Vary International Airport

Karlovy Vary, Czech Republic
TAF LKKV 151100Z 1512/1618 30005KT 9999 SCT045 TEMPO 1512/1516 33014KT 8000 SHRA SCT035TCU BECMG 1519/1521 VRB02KT CAVOK TEMPO 1600/1606 2500 MIFG NSC BECMG 1611/1613 10004KT SCT040TCU
Issued Valid From Valid To
Aug-15 @ 11:00 UTC
(2 hours ago)
Aug-15 @ 12:00 UTC
(41 minutes ago)
Aug-16 @ 18:00 UTC
(-1 days ago)
Aug-15 @ 12:00 to Aug-15 @ 19:00
TAF LKKV 151100Z 1512/1618 30005KT 9999 SCT045
Wind Visibility Clouds
300° at 5 knots 10,000+ meters
  • Scattered at 4,500' AGL
Temporary Aug-15 @ 12:00 to Aug-15 @ 16:00
TEMPO 1512/1516 33014KT 8000 SHRA SCT035TCU
Wind Visibility Clouds Conditions
330° at 14 knots 7,998 meters
  • Scattered at 3,500' AGL
  • Rain
Becoming Aug-15 @ 19:00 to Aug-16 @ 11:00
BECMG 1519/1521 VRB02KT CAVOK
Wind Visibility Clouds Conditions
Variable at 2 knots 10,000+ meters
  • No significant clouds
Temporary Aug-16 @ 00:00 to Aug-16 @ 06:00
TEMPO 1600/1606 2500 MIFG NSC
Visibility Clouds Conditions
2,494 meters
  • No significant clouds
  • Shallow
  • Fog
Becoming Aug-16 @ 11:00 to Aug-16 @ 18:00
BECMG 1611/1613 10004KT SCT040TCU
Wind Visibility Clouds Conditions
100° at 4 knots 10,000+ meters
  • Scattered at 4,000' AGL
TAF LKKV 151100Z 1512/1618 30005KT 9999 SCT045 TEMPO 1512/1516 33014KT 8000 SHRA SCT035TCU BECMG 1519/1521 VRB02KT CAVOK TEMPO 1600/1606 2500 MIFG NSC BECMG 1611/1613 10004KT SCT040TCU
Issued Aug-15 @ 11:00 UTC
(2 hours ago)
Valid From Aug-15 @ 12:00 UTC
(41 minutes ago)
Valid To Aug-16 @ 18:00 UTC
(-1 days ago)
Aug-15 @ 12:00 - Aug-15 @ 19:00
Wind Visibility
300° at 5 knots 10,000+ meters
Clouds
  • Scattered at 4,500' AGL
Temporary Aug-15 @ 12:00 - Aug-15 @ 16:00
Wind Visibility
330° at 14 knots 7,998 meters
Clouds
  • Scattered at 3,500' AGL
Conditions
  • Rain
Becoming Aug-15 @ 19:00 - Aug-16 @ 11:00
Wind Visibility
Variable at 2 knots 10,000+ meters
Clouds
  • No significant clouds
Conditions
Temporary Aug-16 @ 00:00 - Aug-16 @ 06:00
Clouds
  • No significant clouds
Conditions
  • Shallow
  • Fog
Becoming Aug-16 @ 11:00 - Aug-16 @ 18:00
Wind Visibility
100° at 4 knots 10,000+ meters
Clouds
  • Scattered at 4,000' AGL
Conditions